TimeCDT,TemperatureF,Dew PointF,Humidity,Sea Level PressureIn,VisibilityMPH,Wind Direction,Wind SpeedMPH,Gust SpeedMPH,PrecipitationIn,Events,Conditions,WindDirDegrees,DateUTC
12:09 AM,29.7,23.4,77,30.01,10.0,West,4.6,-,N/A,,Scattered Clouds,270,2012-10-10 05:09:00
12:49 AM,31.8,25.5,78,30.01,10.0,West,5.8,-,N/A,,Mostly Cloudy,270,2012-10-10 05:49:00
1:08 AM,34.0,27.5,77,30.01,10.0,West,6.9,-,N/A,,Mostly Cloudy,260,2012-10-10 06:08:00
1:29 AM,34.0,27.3,77,30.02,10.0,WSW,5.8,-,N/A,,Overcast,250,2012-10-10 06:29:00
1:49 AM,34.0,27.3,77,30.02,10.0,WSW,4.6,-,N/A,,Overcast,250,2012-10-10 06:49:00
2:09 AM,31.5,25.0,77,30.02,10.0,WSW,5.8,-,N/A,,Mostly Cloudy,250,2012-10-10 07:09:00
2:29 AM,34.0,27.9,78,30.02,10.0,West,6.9,-,N/A,,Overcast,270,2012-10-10 07:29:00
2:49 AM,32.5,26.2,78,30.02,10.0,West,5.8,-,N/A,,Overcast,270,2012-10-10 07:49:00
3:08 AM,34.0,27.5,77,30.02,10.0,West,6.9,-,N/A,,Overcast,280,2012-10-10 08:08:00
3:30 AM,33.8,28.4,81,30.02,10.0,West,9.2,-,N/A,,Scattered Clouds,280,2012-10-10 08:30:00
3:50 AM,33.8,28.4,81,30.03,10.0,West,9.2,-,N/A,,Scattered Clouds,270,2012-10-10 08:50:00
4:10 AM,32.0,28.4,87,30.03,10.0,West,6.9,-,N/A,,Clear,280,2012-10-10 09:10:00
4:30 AM,30.2,24.8,80,30.03,10.0,West,5.8,-,N/A,,Clear,270,2012-10-10 09:30:00
4:50 AM,28.4,24.8,86,30.03,10.0,West,5.8,-,N/A,,Clear,270,2012-10-10 09:50:00
5:10 AM,32.0,28.4,87,30.04,10.0,West,8.1,-,N/A,,Clear,280,2012-10-10 10:10:00
5:30 AM,32.0,28.4,87,30.05,10.0,West,6.9,-,N/A,,Clear,270,2012-10-10 10:30:00
5:50 AM,28.4,26.6,93,30.05,10.0,West,4.6,-,N/A,,Clear,270,2012-10-10 10:50:00
6:10 AM,28.4,26.6,93,30.06,10.0,West,5.8,-,N/A,,Clear,260,2012-10-10 11:10:00
6:30 AM,28.4,26.6,93,30.06,10.0,West,4.6,-,N/A,,Clear,270,2012-10-10 11:30:00
6:48 AM,27.3,25.5,93,30.06,10.0,West,6.9,-,N/A,,Clear,260,2012-10-10 11:48:00
6:49 AM,26.8,25.0,93,30.07,10.0,WSW,5.8,-,N/A,,Clear,250,2012-10-10 11:49:00
7:09 AM,28.6,26.8,93,30.08,10.0,WSW,6.9,-,N/A,,Clear,250,2012-10-10 12:09:00
7:49 AM,26.6,25.3,95,30.08,10.0,West,4.6,-,N/A,,Clear,270,2012-10-10 12:49:00
8:09 AM,28.9,27.1,93,30.08,10.0,West,3.5,-,N/A,,Clear,280,2012-10-10 13:09:00
8:28 AM,31.1,28.9,92,30.09,10.0,West,5.8,-,N/A,,Clear,270,2012-10-10 13:28:00
8:49 AM,34.0,31.1,89,30.09,10.0,West,8.1,-,N/A,,Clear,260,2012-10-10 13:49:00
9:09 AM,34.0,30.4,87,30.10,10.0,West,8.1,-,N/A,,Clear,260,2012-10-10 14:09:00
9:29 AM,36.5,31.6,83,30.10,10.0,WSW,8.1,-,N/A,,Clear,250,2012-10-10 14:29:00
9:49 AM,38.7,32.2,78,30.09,10.0,WSW,8.1,-,N/A,,Clear,250,2012-10-10 14:49:00
10:09 AM,39.2,31.6,74,30.10,10.0,WSW,10.4,-,N/A,,Clear,240,2012-10-10 15:09:00
10:29 AM,40.6,32.0,71,30.10,10.0,SW,8.1,-,N/A,,Clear,220,2012-10-10 15:29:00
10:49 AM,41.9,32.0,68,30.11,10.0,WSW,6.9,-,N/A,,Clear,240,2012-10-10 15:49:00
11:08 AM,42.8,32.0,66,30.10,10.0,WSW,8.1,-,N/A,,Clear,240,2012-10-10 16:08:00
11:50 AM,48.2,32.0,54,30.09,10.0,WSW,11.5,-,N/A,,Clear,240,2012-10-10 16:50:00
12:10 PM,48.2,32.0,54,30.09,10.0,West,12.7,19.6,N/A,,Scattered Clouds,270,2012-10-10 17:10:00
12:30 PM,50.0,32.0,50,30.08,10.0,WSW,16.1,-,N/A,,Clear,250,2012-10-10 17:30:00
12:50 PM,50.0,32.0,50,30.08,10.0,WSW,9.2,-,N/A,,Scattered Clouds,240,2012-10-10 17:50:00
1:10 PM,51.8,32.0,47,30.07,10.0,West,12.7,18.4,N/A,,Scattered Clouds,260,2012-10-10 18:10:00
1:50 PM,51.8,28.4,41,30.05,10.0,West,10.4,23.0,N/A,,Overcast,270,2012-10-10 18:50:00
1:53 PM,52.7,29.5,41,30.05,10.0,West,12.7,23.0,N/A,,Overcast,260,2012-10-10 18:53:00
2:09 PM,52.9,29.3,40,30.05,10.0,West,11.5,20.7,N/A,,Overcast,270,2012-10-10 19:09:00
2:28 PM,53.6,30.0,41,30.04,10.0,WSW,9.2,-,N/A,,Overcast,240,2012-10-10 19:28:00
2:49 PM,54.1,30.0,40,30.02,10.0,West,9.2,-,N/A,,Mostly Cloudy,260,2012-10-10 19:49:00
3:09 PM,54.1,28.9,38,30.01,10.0,WNW,8.1,-,N/A,,Scattered Clouds,290,2012-10-10 20:09:00
3:29 PM,54.1,26.6,35,30.01,10.0,West,13.8,24.2,N/A,,Mostly Cloudy,260,2012-10-10 20:29:00
3:49 PM,54.1,26.8,35,30.01,10.0,WSW,12.7,20.7,N/A,,Mostly Cloudy,240,2012-10-10 20:49:00
4:07 PM,54.1,26.8,35,30.00,10.0,WSW,9.2,-,N/A,,Mostly Cloudy,250,2012-10-10 21:07:00
4:28 PM,54.1,26.6,35,29.99,10.0,WSW,12.7,-,N/A,,Mostly Cloudy,250,2012-10-10 21:28:00
4:48 PM,54.1,26.6,35,29.98,7.0,WSW,9.2,-,N/A,,Mostly Cloudy,240,2012-10-10 21:48:00
5:09 PM,54.1,26.8,35,29.97,10.0,WSW,5.8,-,N/A,,Mostly Cloudy,240,2012-10-10 22:09:00
5:29 PM,54.1,27.5,36,29.97,10.0,WSW,4.6,-,N/A,,Overcast,240,2012-10-10 22:29:00
5:49 PM,54.1,28.6,37,29.95,10.0,South,4.6,-,N/A,,Overcast,190,2012-10-10 22:49:00
6:06 PM,54.1,30.0,40,29.95,10.0,Calm,Calm,-,N/A,,Overcast,0,2012-10-10 23:06:00
6:29 PM,51.8,28.2,40,29.94,10.0,Calm,Calm,-,N/A,,Overcast,0,2012-10-10 23:29:00
6:48 PM,50.4,28.4,43,29.93,10.0,Calm,Calm,-,N/A,,Overcast,0,2012-10-10 23:48:00
7:08 PM,50.0,28.0,43,29.93,10.0,Calm,Calm,-,N/A,,Overcast,0,2012-10-11 00:08:00
7:28 PM,49.3,27.5,43,29.93,10.0,Calm,Calm,-,N/A,,Overcast,0,2012-10-11 00:28:00
7:49 PM,49.3,27.3,43,29.92,10.0,SE,4.6,-,N/A,,Overcast,140,2012-10-11 00:49:00
8:09 PM,49.1,27.3,43,29.91,10.0,SE,5.8,-,N/A,,Overcast,140,2012-10-11 01:09:00
8:29 PM,49.1,28.2,44,29.90,10.0,SE,4.6,-,N/A,,Overcast,140,2012-10-11 01:29:00
8:49 PM,49.1,28.4,45,29.90,10.0,SE,4.6,-,N/A,,Overcast,130,2012-10-11 01:49:00
9:09 PM,49.1,28.6,45,29.89,10.0,SSE,3.5,-,N/A,,Overcast,150,2012-10-11 02:09:00
9:11 PM,49.1,28.2,44,29.89,10.0,SSE,3.5,-,N/A,,Overcast,160,2012-10-11 02:11:00
9:50 PM,51.8,28.4,41,29.86,10.0,South,9.2,-,N/A,,Scattered Clouds,180,2012-10-11 02:50:00
10:10 PM,51.8,28.4,41,29.85,10.0,South,12.7,18.4,N/A,,Mostly Cloudy,180,2012-10-11 03:10:00
10:30 PM,51.8,28.4,41,29.84,10.0,South,12.7,18.4,N/A,,Overcast,180,2012-10-11 03:30:00
10:50 PM,51.8,30.2,44,29.83,10.0,South,13.8,20.7,N/A,,Overcast,180,2012-10-11 03:50:00
11:10 PM,51.8,30.2,44,29.83,10.0,South,12.7,21.9,N/A,,Overcast,190,2012-10-11 04:10:00
11:30 PM,51.8,30.2,44,29.81,10.0,South,13.8,20.7,N/A,,Overcast,190,2012-10-11 04:30:00
11:44 PM,54.1,33.4,46,29.80,10.0,South,12.7,19.6,N/A,,Overcast,190,2012-10-11 04:44:00
11:49 PM,54.1,33.4,46,29.80,10.0,South,12.7,19.6,N/A,,Overcast,190,2012-10-11 04:49:00